< Typhoon 198302 1983 Season Typhoon 198304 >
Typhoon 198303 (VERA)
General InformationTrack Information on Google MapsDetailed Wind InformationList of All Images || Disaster Info.ResourceGoogle EarthGE AnimationAtom FeedGeoJSON
Detalied Best Track (Time Zone = UTC)
Year Month Day Hour Lat. Long. Pressure (hPa) Wind (kt) Class Image Chart
1983 7 10 06 9.0 140.0 1006 0 2 Image Chart
1983 7 10 12 9.0 138.4 1008 0 2 Image Chart
1983 7 10 18 9.5 137.1 1006 0 2 Image Chart
1983 7 11 00 10.0 136.0 1006 0 2 Image Chart
1983 7 11 06 10.2 135.2 1006 0 2 Image Chart
1983 7 11 12 10.6 134.3 1006 0 2 Image Chart
1983 7 11 18 10.8 133.4 1006 0 2 Image Chart
1983 7 12 00 11.3 132.5 1004 0 2 Image Chart
1983 7 12 06 11.3 131.3 1002 0 2 Image Chart
1983 7 12 12 11.3 130.2 1000 0 2 Image Chart
1983 7 12 18 11.2 129.2 998 40 3 Image Chart
1983 7 13 00 11.2 128.5 992 45 3 Image Chart
1983 7 13 06 11.5 128.0 990 50 4 Image Chart
1983 7 13 12 11.7 127.1 985 50 4 Image Chart
1983 7 13 18 12.2 126.4 980 50 4 Image Chart
1983 7 14 00 12.4 125.5 975 70 5 Image Chart
1983 7 14 06 13.0 124.5 975 70 5 Image Chart
1983 7 14 12 13.5 123.6 975 70 5 Image Chart
1983 7 14 18 13.9 122.4 975 70 5 Image Chart
1983 7 15 00 14.4 121.2 980 60 4 Image Chart
1983 7 15 06 14.9 120.0 980 55 4 Image Chart
1983 7 15 12 15.6 118.8 985 55 4 Image Chart
1983 7 15 18 16.1 117.8 980 60 4 Image Chart
1983 7 16 00 16.7 116.4 975 65 5 Image Chart
1983 7 16 06 17.2 115.3 975 65 5 Image Chart
1983 7 16 12 17.6 114.6 970 65 5 Image Chart
1983 7 16 18 18.2 113.4 970 70 5 Image Chart
1983 7 17 00 19.0 112.2 965 75 5 Image Chart
1983 7 17 06 19.5 111.3 965 75 5 Image Chart
1983 7 17 12 20.0 109.9 975 65 5 Image Chart
1983 7 17 18 20.5 108.5 975 65 5 Image Chart
1983 7 18 00 21.0 107.0 980 55 4 Image Chart
1983 7 18 06 21.5 105.5 990 45 3 Image Chart
1983 7 18 12 21.7 104.0 992 40 3 Image Chart
1983 7 18 18 21.9 102.0 994 35 3 Image Chart
1983 7 19 00 22.0 100.0 996 0 2 Image Chart
Japan Meteorological Agency Best Track Data | Correction Date : 1992-10-21
< Typhoon 198302 1983 Season Typhoon 198304 >

Help